Canefield Airport

Partly cloudy with gusty winds
31oC (88oF)

Partly cloudy with gusty winds


Winds: South south easterly @ 06kts / 11km/h gusting to 19kts / 35km/h

Humidity: 54%

Barometric Pressure: 1016 mb

Accumulated Rainfall for June: 5.9 mm

Updated: 11:00 local time (15:00 UTC)

Douglas-Charles Airport

Cloudy
30oC (86oF)

Cloudy


Winds: East south easterly @ 09kts / 17km/h

Humidity: 69%

Barometric Pressure: 1018 mb

Accumulated Rainfall for June: 8.0 mm

Updated: 11:00 local time (15:00 UTC)

Satellite Imagery

Satellite Imagery
Click image for larger view. (Source: National Hurricane Center).

Aviation Routine Report (METAR)

Douglas-Charles: METAR TDPD 041500Z 11009KT 9999 BKN018 30/24 Q1018=
Canefield: METAR TDCF 041500Z 15006G19KT 9999 SCT018 31/21 Q1016=